sensor_id;sensor_type;location;lat;lon;timestamp;P1;durP1;ratioP1;P2;durP2;ratioP2
75005;SDS011;63553;51.814;4.600;2023-01-30T00:01:25;7.57;;;5.05;;
75005;SDS011;63553;51.814;4.600;2023-01-30T00:03:53;5.65;;;4.55;;
75005;SDS011;63553;51.814;4.600;2023-01-30T00:06:19;6.47;;;4.07;;
75005;SDS011;63553;51.814;4.600;2023-01-30T00:08:45;5.82;;;4.43;;
75005;SDS011;63553;51.814;4.600;2023-01-30T00:11:11;5.75;;;4.38;;
75005;SDS011;63553;51.814;4.600;2023-01-30T00:13:38;6.88;;;4.20;;
75005;SDS011;63553;51.814;4.600;2023-01-30T00:16:04;4.63;;;4.22;;
75005;SDS011;63553;51.814;4.600;2023-01-30T00:18:30;5.82;;;4.13;;
75005;SDS011;63553;51.814;4.600;2023-01-30T00:20:56;5.07;;;3.85;;
75005;SDS011;63553;51.814;4.600;2023-01-30T00:23:23;5.57;;;3.55;;
75005;SDS011;63553;51.814;4.600;2023-01-30T00:25:50;4.28;;;3.88;;
75005;SDS011;63553;51.814;4.600;2023-01-30T00:28:15;6.38;;;4.03;;
75005;SDS011;63553;51.814;4.600;2023-01-30T00:30:40;4.85;;;3.90;;
75005;SDS011;63553;51.814;4.600;2023-01-30T00:33:06;4.93;;;4.23;;
75005;SDS011;63553;51.814;4.600;2023-01-30T00:35:31;4.20;;;3.80;;
75005;SDS011;63553;51.814;4.600;2023-01-30T00:37:57;5.07;;;3.72;;
75005;SDS011;63553;51.814;4.600;2023-01-30T00:40:23;5.95;;;4.10;;
75005;SDS011;63553;51.814;4.600;2023-01-30T00:42:49;5.90;;;3.28;;
75005;SDS011;63553;51.814;4.600;2023-01-30T00:45:33;5.72;;;4.00;;
75005;SDS011;63553;51.814;4.600;2023-01-30T00:48:18;6.03;;;3.65;;
75005;SDS011;63553;51.814;4.600;2023-01-30T00:50:43;5.78;;;3.50;;
75005;SDS011;63553;51.814;4.600;2023-01-30T00:53:09;3.42;;;3.13;;
75005;SDS011;63553;51.814;4.600;2023-01-30T00:55:35;5.95;;;3.55;;
75005;SDS011;63553;51.814;4.600;2023-01-30T00:58:01;3.55;;;2.97;;
75005;SDS011;63553;51.814;4.600;2023-01-30T01:00:26;4.20;;;3.10;;
75005;SDS011;63553;51.814;4.600;2023-01-30T01:02:51;3.93;;;2.80;;
75005;SDS011;63553;51.814;4.600;2023-01-30T01:05:17;5.33;;;3.13;;
75005;SDS011;63553;51.814;4.600;2023-01-30T01:07:42;4.05;;;3.13;;
75005;SDS011;63553;51.814;4.600;2023-01-30T01:10:07;4.07;;;3.37;;
75005;SDS011;63553;51.814;4.600;2023-01-30T01:12:33;4.18;;;3.05;;
75005;SDS011;63553;51.814;4.600;2023-01-30T01:14:59;4.83;;;3.30;;
75005;SDS011;63553;51.814;4.600;2023-01-30T01:17:24;5.05;;;3.40;;
75005;SDS011;63553;51.814;4.600;2023-01-30T01:19:49;4.40;;;3.27;;
75005;SDS011;63553;51.814;4.600;2023-01-30T01:22:15;5.03;;;2.83;;
75005;SDS011;63553;51.814;4.600;2023-01-30T01:24:40;4.20;;;2.90;;
75005;SDS011;63553;51.814;4.600;2023-01-30T01:27:05;3.42;;;2.95;;
75005;SDS011;63553;51.814;4.600;2023-01-30T01:29:31;3.60;;;2.70;;
75005;SDS011;63553;51.814;4.600;2023-01-30T01:31:56;2.85;;;2.65;;
75005;SDS011;63553;51.814;4.600;2023-01-30T01:34:22;2.67;;;2.42;;
75005;SDS011;63553;51.814;4.600;2023-01-30T01:36:48;5.13;;;3.17;;
75005;SDS011;63553;51.814;4.600;2023-01-30T01:39:13;3.88;;;2.50;;
75005;SDS011;63553;51.814;4.600;2023-01-30T01:41:39;7.23;;;3.10;;
75005;SDS011;63553;51.814;4.600;2023-01-30T01:49:25;4.85;;;3.03;;
75005;SDS011;63553;51.814;4.600;2023-01-30T01:52:04;3.03;;;2.45;;
75005;SDS011;63553;51.814;4.600;2023-01-30T02:00:01;4.22;;;2.17;;
75005;SDS011;63553;51.814;4.600;2023-01-30T02:02:31;3.30;;;2.20;;
75005;SDS011;63553;51.814;4.600;2023-01-30T02:04:58;2.67;;;2.33;;
75005;SDS011;63553;51.814;4.600;2023-01-30T02:09:58;3.47;;;2.38;;
75005;SDS011;63553;51.814;4.600;2023-01-30T02:12:25;4.43;;;2.70;;
75005;SDS011;63553;51.814;4.600;2023-01-30T02:14:50;4.03;;;2.38;;
75005;SDS011;63553;51.814;4.600;2023-01-30T02:17:18;2.88;;;2.22;;
75005;SDS011;63553;51.814;4.600;2023-01-30T02:22:28;2.08;;;1.95;;
75005;SDS011;63553;51.814;4.600;2023-01-30T02:33:35;2.70;;;1.70;;
75005;SDS011;63553;51.814;4.600;2023-01-30T02:38:55;3.35;;;2.17;;
75005;SDS011;63553;51.814;4.600;2023-01-30T02:47:16;2.25;;;1.83;;
75005;SDS011;63553;51.814;4.600;2023-01-30T02:49:50;2.05;;;1.77;;
75005;SDS011;63553;51.814;4.600;2023-01-30T02:52:20;2.28;;;2.08;;
75005;SDS011;63553;51.814;4.600;2023-01-30T02:54:47;2.85;;;1.60;;
75005;SDS011;63553;51.814;4.600;2023-01-30T02:57:19;1.90;;;1.80;;
75005;SDS011;63553;51.814;4.600;2023-01-30T02:59:47;5.05;;;2.10;;
75005;SDS011;63553;51.814;4.600;2023-01-30T03:16:15;3.03;;;2.00;;
75005;SDS011;63553;51.814;4.600;2023-01-30T03:19:02;3.03;;;2.17;;
75005;SDS011;63553;51.814;4.600;2023-01-30T03:21:31;3.28;;;2.10;;
75005;SDS011;63553;51.814;4.600;2023-01-30T03:23:56;3.67;;;1.75;;
75005;SDS011;63553;51.814;4.600;2023-01-30T03:26:23;3.22;;;1.90;;
75005;SDS011;63553;51.814;4.600;2023-01-30T03:28:51;2.22;;;1.80;;
75005;SDS011;63553;51.814;4.600;2023-01-30T03:31:17;3.75;;;1.70;;
75005;SDS011;63553;51.814;4.600;2023-01-30T03:33:43;3.35;;;1.83;;
75005;SDS011;63553;51.814;4.600;2023-01-30T03:36:08;1.92;;;1.63;;
75005;SDS011;63553;51.814;4.600;2023-01-30T03:38:34;3.08;;;1.70;;
75005;SDS011;63553;51.814;4.600;2023-01-30T03:41:01;2.67;;;1.80;;
75005;SDS011;63553;51.814;4.600;2023-01-30T03:43:27;2.75;;;1.80;;
75005;SDS011;63553;51.814;4.600;2023-01-30T03:45:52;3.88;;;1.50;;
75005;SDS011;63553;51.814;4.600;2023-01-30T03:48:18;2.63;;;1.30;;
75005;SDS011;63553;51.814;4.600;2023-01-30T03:50:43;4.37;;;1.80;;
75005;SDS011;63553;51.814;4.600;2023-01-30T03:53:08;2.93;;;1.87;;
75005;SDS011;63553;51.814;4.600;2023-01-30T03:55:34;3.47;;;2.05;;
75005;SDS011;63553;51.814;4.600;2023-01-30T03:57:59;2.83;;;1.60;;
75005;SDS011;63553;51.814;4.600;2023-01-30T04:00:24;3.50;;;1.67;;
75005;SDS011;63553;51.814;4.600;2023-01-30T04:02:50;1.70;;;1.60;;
75005;SDS011;63553;51.814;4.600;2023-01-30T04:05:16;2.97;;;1.92;;
75005;SDS011;63553;51.814;4.600;2023-01-30T04:07:42;3.03;;;1.83;;
75005;SDS011;63553;51.814;4.600;2023-01-30T04:10:07;4.82;;;1.60;;
75005;SDS011;63553;51.814;4.600;2023-01-30T04:12:33;2.42;;;1.60;;
75005;SDS011;63553;51.814;4.600;2023-01-30T04:14:58;3.63;;;1.97;;
75005;SDS011;63553;51.814;4.600;2023-01-30T04:17:23;3.33;;;1.40;;
75005;SDS011;63553;51.814;4.600;2023-01-30T04:19:49;3.40;;;1.60;;
75005;SDS011;63553;51.814;4.600;2023-01-30T04:22:14;3.80;;;1.97;;
75005;SDS011;63553;51.814;4.600;2023-01-30T04:24:39;2.65;;;1.58;;
75005;SDS011;63553;51.814;4.600;2023-01-30T04:27:05;3.00;;;1.40;;
75005;SDS011;63553;51.814;4.600;2023-01-30T04:29:30;2.40;;;1.80;;
75005;SDS011;63553;51.814;4.600;2023-01-30T04:31:55;2.57;;;1.40;;
75005;SDS011;63553;51.814;4.600;2023-01-30T04:34:21;4.30;;;1.70;;
75005;SDS011;63553;51.814;4.600;2023-01-30T04:36:46;6.10;;;1.90;;
75005;SDS011;63553;51.814;4.600;2023-01-30T04:39:11;3.67;;;1.50;;
75005;SDS011;63553;51.814;4.600;2023-01-30T04:41:37;2.33;;;1.90;;
75005;SDS011;63553;51.814;4.600;2023-01-30T04:44:02;2.33;;;1.70;;
75005;SDS011;63553;51.814;4.600;2023-01-30T04:46:27;3.97;;;1.55;;
75005;SDS011;63553;51.814;4.600;2023-01-30T04:48:53;4.77;;;1.77;;
75005;SDS011;63553;51.814;4.600;2023-01-30T04:51:18;2.23;;;1.57;;
75005;SDS011;63553;51.814;4.600;2023-01-30T04:53:43;2.13;;;1.93;;
75005;SDS011;63553;51.814;4.600;2023-01-30T04:56:09;3.10;;;1.77;;
75005;SDS011;63553;51.814;4.600;2023-01-30T04:58:34;2.23;;;1.67;;
75005;SDS011;63553;51.814;4.600;2023-01-30T05:01:18;3.45;;;1.80;;
75005;SDS011;63553;51.814;4.600;2023-01-30T05:03:52;2.65;;;1.80;;
75005;SDS011;63553;51.814;4.600;2023-01-30T05:06:18;5.07;;;1.77;;
75005;SDS011;63553;51.814;4.600;2023-01-30T05:08:46;2.92;;;1.70;;
75005;SDS011;63553;51.814;4.600;2023-01-30T05:11:13;3.95;;;2.15;;
75005;SDS011;63553;51.814;4.600;2023-01-30T05:13:38;10.87;;;2.00;;
75005;SDS011;63553;51.814;4.600;2023-01-30T05:16:03;3.90;;;1.50;;
75005;SDS011;63553;51.814;4.600;2023-01-30T05:18:29;22.13;;;3.25;;
75005;SDS011;63553;51.814;4.600;2023-01-30T05:21:01;7.57;;;1.83;;
75005;SDS011;63553;51.814;4.600;2023-01-30T05:23:27;5.55;;;2.20;;
75005;SDS011;63553;51.814;4.600;2023-01-30T05:25:53;2.90;;;1.70;;
75005;SDS011;63553;51.814;4.600;2023-01-30T05:28:18;4.53;;;1.77;;
75005;SDS011;63553;51.814;4.600;2023-01-30T05:30:43;2.20;;;1.50;;
75005;SDS011;63553;51.814;4.600;2023-01-30T05:33:08;2.43;;;1.67;;
75005;SDS011;63553;51.814;4.600;2023-01-30T05:35:34;2.60;;;1.40;;
75005;SDS011;63553;51.814;4.600;2023-01-30T05:37:59;13.70;;;1.80;;
75005;SDS011;63553;51.814;4.600;2023-01-30T05:40:26;5.68;;;1.80;;
75005;SDS011;63553;51.814;4.600;2023-01-30T05:42:52;1.88;;;1.30;;
75005;SDS011;63553;51.814;4.600;2023-01-30T05:45:17;2.33;;;1.63;;
75005;SDS011;63553;51.814;4.600;2023-01-30T05:47:42;4.17;;;1.87;;
75005;SDS011;63553;51.814;4.600;2023-01-30T05:50:08;3.77;;;1.50;;
75005;SDS011;63553;51.814;4.600;2023-01-30T05:52:34;2.35;;;1.60;;
75005;SDS011;63553;51.814;4.600;2023-01-30T05:54:59;4.60;;;1.90;;
75005;SDS011;63553;51.814;4.600;2023-01-30T05:57:24;4.73;;;1.80;;
75005;SDS011;63553;51.814;4.600;2023-01-30T05:59:50;4.10;;;1.40;;
75005;SDS011;63553;51.814;4.600;2023-01-30T06:02:15;3.23;;;1.27;;
75005;SDS011;63553;51.814;4.600;2023-01-30T06:04:40;6.27;;;1.50;;
75005;SDS011;63553;51.814;4.600;2023-01-30T06:07:06;7.57;;;2.43;;
75005;SDS011;63553;51.814;4.600;2023-01-30T06:09:31;39.60;;;18.27;;
75005;SDS011;63553;51.814;4.600;2023-01-30T06:11:56;22.33;;;8.17;;
75005;SDS011;63553;51.814;4.600;2023-01-30T06:14:21;9.37;;;5.60;;
75005;SDS011;63553;51.814;4.600;2023-01-30T06:16:47;6.77;;;4.33;;
75005;SDS011;63553;51.814;4.600;2023-01-30T06:19:12;7.77;;;3.60;;
75005;SDS011;63553;51.814;4.600;2023-01-30T06:21:37;5.03;;;3.07;;
75005;SDS011;63553;51.814;4.600;2023-01-30T06:24:03;2.80;;;2.50;;
75005;SDS011;63553;51.814;4.600;2023-01-30T06:26:28;5.28;;;2.60;;
75005;SDS011;63553;51.814;4.600;2023-01-30T06:28:53;8.53;;;2.60;;
75005;SDS011;63553;51.814;4.600;2023-01-30T06:31:19;5.93;;;2.30;;
75005;SDS011;63553;51.814;4.600;2023-01-30T06:33:44;4.40;;;2.27;;
75005;SDS011;63553;51.814;4.600;2023-01-30T06:36:09;3.10;;;1.87;;
75005;SDS011;63553;51.814;4.600;2023-01-30T06:38:35;6.70;;;1.70;;
75005;SDS011;63553;51.814;4.600;2023-01-30T06:41:00;5.68;;;2.00;;
75005;SDS011;63553;51.814;4.600;2023-01-30T06:43:25;6.05;;;1.83;;
75005;SDS011;63553;51.814;4.600;2023-01-30T06:45:51;4.67;;;1.80;;
75005;SDS011;63553;51.814;4.600;2023-01-30T06:48:16;6.37;;;2.23;;
75005;SDS011;63553;51.814;4.600;2023-01-30T06:50:41;5.73;;;1.87;;
75005;SDS011;63553;51.814;4.600;2023-01-30T06:53:07;6.30;;;2.07;;
75005;SDS011;63553;51.814;4.600;2023-01-30T06:55:33;4.65;;;1.98;;
75005;SDS011;63553;51.814;4.600;2023-01-30T06:58:03;4.50;;;1.83;;
75005;SDS011;63553;51.814;4.600;2023-01-30T07:02:58;6.35;;;1.75;;
75005;SDS011;63553;51.814;4.600;2023-01-30T07:05:24;4.90;;;1.60;;
75005;SDS011;63553;51.814;4.600;2023-01-30T07:07:50;13.50;;;2.00;;
75005;SDS011;63553;51.814;4.600;2023-01-30T07:10:16;11.93;;;2.70;;
75005;SDS011;63553;51.814;4.600;2023-01-30T07:12:41;17.17;;;3.30;;
75005;SDS011;63553;51.814;4.600;2023-01-30T07:15:06;14.83;;;3.27;;
75005;SDS011;63553;51.814;4.600;2023-01-30T07:17:33;9.57;;;2.35;;
75005;SDS011;63553;51.814;4.600;2023-01-30T07:19:59;9.00;;;2.10;;
75005;SDS011;63553;51.814;4.600;2023-01-30T07:22:24;4.57;;;1.90;;
75005;SDS011;63553;51.814;4.600;2023-01-30T07:24:49;5.18;;;1.40;;
75005;SDS011;63553;51.814;4.600;2023-01-30T07:27:15;9.17;;;1.90;;
75005;SDS011;63553;51.814;4.600;2023-01-30T07:29:40;4.57;;;1.77;;
75005;SDS011;63553;51.814;4.600;2023-01-30T07:32:06;6.27;;;2.00;;
75005;SDS011;63553;51.814;4.600;2023-01-30T07:37:01;6.80;;;1.90;;
75005;SDS011;63553;51.814;4.600;2023-01-30T07:39:27;5.90;;;1.97;;
75005;SDS011;63553;51.814;4.600;2023-01-30T07:41:52;5.43;;;1.97;;
75005;SDS011;63553;51.814;4.600;2023-01-30T07:44:17;6.77;;;1.50;;
75005;SDS011;63553;51.814;4.600;2023-01-30T07:46:43;4.13;;;1.42;;
75005;SDS011;63553;51.814;4.600;2023-01-30T07:49:08;4.40;;;1.60;;
75005;SDS011;63553;51.814;4.600;2023-01-30T07:51:34;6.53;;;2.30;;
75005;SDS011;63553;51.814;4.600;2023-01-30T07:53:59;3.17;;;1.58;;
75005;SDS011;63553;51.814;4.600;2023-01-30T07:56:26;4.88;;;1.73;;
75005;SDS011;63553;51.814;4.600;2023-01-30T07:58:53;6.20;;;2.13;;
75005;SDS011;63553;51.814;4.600;2023-01-30T08:01:19;9.23;;;1.95;;
75005;SDS011;63553;51.814;4.600;2023-01-30T08:03:45;4.15;;;1.50;;
75005;SDS011;63553;51.814;4.600;2023-01-30T08:06:11;6.15;;;1.52;;
75005;SDS011;63553;51.814;4.600;2023-01-30T08:08:37;11.23;;;2.38;;
75005;SDS011;63553;51.814;4.600;2023-01-30T08:11:03;6.15;;;1.70;;
75005;SDS011;63553;51.814;4.600;2023-01-30T08:13:29;8.68;;;2.28;;
75005;SDS011;63553;51.814;4.600;2023-01-30T08:15:54;7.17;;;1.93;;
75005;SDS011;63553;51.814;4.600;2023-01-30T08:18:19;4.73;;;1.50;;
75005;SDS011;63553;51.814;4.600;2023-01-30T08:20:44;7.60;;;2.10;;
75005;SDS011;63553;51.814;4.600;2023-01-30T08:23:10;5.75;;;1.70;;
75005;SDS011;63553;51.814;4.600;2023-01-30T08:25:36;6.53;;;2.13;;
75005;SDS011;63553;51.814;4.600;2023-01-30T08:28:02;4.95;;;1.45;;
75005;SDS011;63553;51.814;4.600;2023-01-30T08:30:28;7.00;;;1.95;;
75005;SDS011;63553;51.814;4.600;2023-01-30T08:32:54;8.55;;;1.67;;
75005;SDS011;63553;51.814;4.600;2023-01-30T08:35:21;7.47;;;2.20;;
75005;SDS011;63553;51.814;4.600;2023-01-30T08:37:46;6.07;;;2.07;;
75005;SDS011;63553;51.814;4.600;2023-01-30T08:40:12;5.95;;;1.42;;
75005;SDS011;63553;51.814;4.600;2023-01-30T08:42:37;8.40;;;2.33;;
75005;SDS011;63553;51.814;4.600;2023-01-30T08:45:03;6.15;;;1.88;;
75005;SDS011;63553;51.814;4.600;2023-01-30T08:47:28;5.35;;;2.38;;
75005;SDS011;63553;51.814;4.600;2023-01-30T08:49:55;5.05;;;1.80;;
75005;SDS011;63553;51.814;4.600;2023-01-30T08:52:21;10.27;;;1.77;;
75005;SDS011;63553;51.814;4.600;2023-01-30T08:54:46;8.02;;;1.88;;
75005;SDS011;63553;51.814;4.600;2023-01-30T08:57:15;6.20;;;1.65;;
75005;SDS011;63553;51.814;4.600;2023-01-30T08:59:40;8.38;;;1.52;;
75005;SDS011;63553;51.814;4.600;2023-01-30T09:02:08;5.05;;;1.63;;
75005;SDS011;63553;51.814;4.600;2023-01-30T09:04:34;9.88;;;1.98;;
75005;SDS011;63553;51.814;4.600;2023-01-30T09:07:00;7.10;;;2.13;;
75005;SDS011;63553;51.814;4.600;2023-01-30T09:09:27;3.83;;;1.80;;
75005;SDS011;63553;51.814;4.600;2023-01-30T09:11:53;5.38;;;1.48;;
75005;SDS011;63553;51.814;4.600;2023-01-30T09:14:18;6.03;;;1.70;;
75005;SDS011;63553;51.814;4.600;2023-01-30T09:16:46;5.10;;;1.30;;
75005;SDS011;63553;51.814;4.600;2023-01-30T09:19:13;5.43;;;1.45;;
75005;SDS011;63553;51.814;4.600;2023-01-30T09:21:39;9.50;;;1.77;;
75005;SDS011;63553;51.814;4.600;2023-01-30T09:24:04;6.45;;;1.77;;
75005;SDS011;63553;51.814;4.600;2023-01-30T09:26:30;6.55;;;1.67;;
75005;SDS011;63553;51.814;4.600;2023-01-30T09:28:56;9.18;;;1.92;;
75005;SDS011;63553;51.814;4.600;2023-01-30T09:31:21;3.03;;;1.40;;
75005;SDS011;63553;51.814;4.600;2023-01-30T09:33:47;5.43;;;1.97;;
75005;SDS011;63553;51.814;4.600;2023-01-30T09:36:12;7.15;;;2.15;;
75005;SDS011;63553;51.814;4.600;2023-01-30T09:38:37;4.70;;;1.33;;
75005;SDS011;63553;51.814;4.600;2023-01-30T09:43:47;6.63;;;1.77;;
75005;SDS011;63553;51.814;4.600;2023-01-30T09:46:45;6.65;;;1.85;;
75005;SDS011;63553;51.814;4.600;2023-01-30T09:51:57;4.88;;;1.67;;
75005;SDS011;63553;51.814;4.600;2023-01-30T09:54:41;4.70;;;1.42;;
75005;SDS011;63553;51.814;4.600;2023-01-30T09:57:16;4.80;;;1.70;;
75005;SDS011;63553;51.814;4.600;2023-01-30T09:59:45;6.10;;;1.33;;
75005;SDS011;63553;51.814;4.600;2023-01-30T10:05:13;5.57;;;1.80;;
75005;SDS011;63553;51.814;4.600;2023-01-30T10:10:41;6.72;;;1.70;;
75005;SDS011;63553;51.814;4.600;2023-01-30T10:15:50;6.43;;;1.80;;
75005;SDS011;63553;51.814;4.600;2023-01-30T10:26:50;6.68;;;1.80;;
75005;SDS011;63553;51.814;4.600;2023-01-30T10:29:24;6.53;;;1.70;;
75005;SDS011;63553;51.814;4.600;2023-01-30T10:31:56;6.30;;;1.95;;
75005;SDS011;63553;51.814;4.600;2023-01-30T10:34:30;5.60;;;1.40;;
75005;SDS011;63553;51.814;4.600;2023-01-30T10:37:09;4.25;;;1.45;;
75005;SDS011;63553;51.814;4.600;2023-01-30T10:42:20;5.03;;;1.65;;
75005;SDS011;63553;51.814;4.600;2023-01-30T10:44:51;5.75;;;1.65;;
75005;SDS011;63553;51.814;4.600;2023-01-30T10:47:31;10.25;;;1.83;;
75005;SDS011;63553;51.814;4.600;2023-01-30T10:52:56;8.50;;;1.40;;
75005;SDS011;63553;51.814;4.600;2023-01-30T11:03:38;6.35;;;1.70;;
75005;SDS011;63553;51.814;4.600;2023-01-30T11:06:05;10.82;;;2.00;;
75005;SDS011;63553;51.814;4.600;2023-01-30T11:08:36;4.30;;;1.40;;
75005;SDS011;63553;51.814;4.600;2023-01-30T11:11:19;6.65;;;1.50;;
75005;SDS011;63553;51.814;4.600;2023-01-30T11:13:45;4.38;;;1.63;;
75005;SDS011;63553;51.814;4.600;2023-01-30T11:16:11;5.82;;;2.08;;
75005;SDS011;63553;51.814;4.600;2023-01-30T11:18:46;8.63;;;2.45;;
75005;SDS011;63553;51.814;4.600;2023-01-30T11:21:18;8.38;;;2.45;;
75005;SDS011;63553;51.814;4.600;2023-01-30T11:23:47;10.13;;;2.08;;
75005;SDS011;63553;51.814;4.600;2023-01-30T11:28:47;7.93;;;2.08;;
75005;SDS011;63553;51.814;4.600;2023-01-30T11:31:17;7.70;;;1.60;;
75005;SDS011;63553;51.814;4.600;2023-01-30T11:34:02;9.25;;;2.03;;
75005;SDS011;63553;51.814;4.600;2023-01-30T11:36:31;4.45;;;1.75;;
75005;SDS011;63553;51.814;4.600;2023-01-30T11:38:58;6.25;;;2.10;;
75005;SDS011;63553;51.814;4.600;2023-01-30T11:41:26;9.45;;;2.20;;
75005;SDS011;63553;51.814;4.600;2023-01-30T11:43:58;5.72;;;1.58;;
75005;SDS011;63553;51.814;4.600;2023-01-30T11:46:24;8.50;;;1.83;;
75005;SDS011;63553;51.814;4.600;2023-01-30T11:48:57;6.43;;;1.50;;
75005;SDS011;63553;51.814;4.600;2023-01-30T11:51:45;8.80;;;1.48;;
75005;SDS011;63553;51.814;4.600;2023-01-30T11:54:20;5.63;;;1.65;;
75005;SDS011;63553;51.814;4.600;2023-01-30T11:56:57;9.23;;;2.00;;
75005;SDS011;63553;51.814;4.600;2023-01-30T11:59:35;4.28;;;1.30;;
75005;SDS011;63553;51.814;4.600;2023-01-30T12:02:14;9.02;;;2.08;;
75005;SDS011;63553;51.814;4.600;2023-01-30T12:04:44;8.68;;;2.15;;
75005;SDS011;63553;51.814;4.600;2023-01-30T12:09:46;11.02;;;1.90;;
75005;SDS011;63553;51.814;4.600;2023-01-30T12:15:30;8.77;;;2.30;;
75005;SDS011;63553;51.814;4.600;2023-01-30T12:18:04;7.00;;;2.47;;
75005;SDS011;63553;51.814;4.600;2023-01-30T12:33:36;6.90;;;2.33;;
75005;SDS011;63553;51.814;4.600;2023-01-30T12:36:05;5.78;;;2.25;;
75005;SDS011;63553;51.814;4.600;2023-01-30T12:44:22;6.15;;;2.25;;
75005;SDS011;63553;51.814;4.600;2023-01-30T13:03:32;10.52;;;1.80;;
75005;SDS011;63553;51.814;4.600;2023-01-30T13:06:23;8.98;;;1.80;;
75005;SDS011;63553;51.814;4.600;2023-01-30T13:17:00;9.65;;;2.05;;
75005;SDS011;63553;51.814;4.600;2023-01-30T13:19:56;7.82;;;2.17;;
75005;SDS011;63553;51.814;4.600;2023-01-30T13:22:39;6.03;;;1.60;;
75005;SDS011;63553;51.814;4.600;2023-01-30T13:27:59;6.03;;;1.63;;
75005;SDS011;63553;51.814;4.600;2023-01-30T13:30:34;8.15;;;1.52;;
75005;SDS011;63553;51.814;4.600;2023-01-30T13:33:02;9.73;;;2.37;;
75005;SDS011;63553;51.814;4.600;2023-01-30T13:35:35;7.32;;;1.75;;
75005;SDS011;63553;51.814;4.600;2023-01-30T13:38:09;7.07;;;1.67;;
75005;SDS011;63553;51.814;4.600;2023-01-30T13:40:41;7.22;;;1.90;;
75005;SDS011;63553;51.814;4.600;2023-01-30T13:45:43;6.00;;;1.90;;
75005;SDS011;63553;51.814;4.600;2023-01-30T13:53:50;6.57;;;1.70;;
75005;SDS011;63553;51.814;4.600;2023-01-30T13:59:24;7.28;;;1.52;;
75005;SDS011;63553;51.814;4.600;2023-01-30T14:02:39;7.60;;;1.80;;
75005;SDS011;63553;51.814;4.600;2023-01-30T14:04:45;10.10;;;2.33;;
75005;SDS011;63553;51.814;4.600;2023-01-30T14:07:16;10.73;;;2.20;;
75005;SDS011;63553;51.814;4.600;2023-01-30T14:10:29;10.23;;;2.05;;
75005;SDS011;63553;51.814;4.600;2023-01-30T14:12:47;7.90;;;2.15;;
75005;SDS011;63553;51.814;4.600;2023-01-30T14:23:54;5.28;;;2.20;;
75005;SDS011;63553;51.814;4.600;2023-01-30T14:31:56;9.30;;;2.05;;
75005;SDS011;63553;51.814;4.600;2023-01-30T14:34:37;7.35;;;1.83;;
75005;SDS011;63553;51.814;4.600;2023-01-30T14:37:24;10.25;;;1.58;;
75005;SDS011;63553;51.814;4.600;2023-01-30T14:39:54;9.13;;;2.55;;
75005;SDS011;63553;51.814;4.600;2023-01-30T14:42:24;6.18;;;1.80;;
75005;SDS011;63553;51.814;4.600;2023-01-30T14:44:58;8.80;;;1.90;;
75005;SDS011;63553;51.814;4.600;2023-01-30T14:47:30;5.57;;;1.63;;
75005;SDS011;63553;51.814;4.600;2023-01-30T14:49:57;13.02;;;2.90;;
75005;SDS011;63553;51.814;4.600;2023-01-30T14:52:33;9.25;;;2.20;;
75005;SDS011;63553;51.814;4.600;2023-01-30T14:55:02;8.88;;;1.95;;
75005;SDS011;63553;51.814;4.600;2023-01-30T14:57:28;8.20;;;2.22;;
75005;SDS011;63553;51.814;4.600;2023-01-30T15:00:04;10.52;;;2.00;;
75005;SDS011;63553;51.814;4.600;2023-01-30T15:02:46;6.10;;;2.22;;
75005;SDS011;63553;51.814;4.600;2023-01-30T15:05:29;8.18;;;2.08;;
75005;SDS011;63553;51.814;4.600;2023-01-30T15:07:57;7.95;;;2.25;;
75005;SDS011;63553;51.814;4.600;2023-01-30T15:10:34;8.00;;;2.25;;
75005;SDS011;63553;51.814;4.600;2023-01-30T15:13:26;7.28;;;1.90;;
75005;SDS011;63553;51.814;4.600;2023-01-30T15:35:44;6.75;;;1.98;;
75005;SDS011;63553;51.814;4.600;2023-01-30T15:41:05;9.07;;;1.92;;
75005;SDS011;63553;51.814;4.600;2023-01-30T15:46:38;9.10;;;2.22;;
75005;SDS011;63553;51.814;4.600;2023-01-30T15:49:17;7.60;;;2.50;;
75005;SDS011;63553;51.814;4.600;2023-01-30T15:51:49;10.93;;;2.72;;
75005;SDS011;63553;51.814;4.600;2023-01-30T15:54:17;7.97;;;1.90;;
75005;SDS011;63553;51.814;4.600;2023-01-30T15:56:46;9.73;;;2.28;;
75005;SDS011;63553;51.814;4.600;2023-01-30T15:59:45;5.82;;;2.15;;
75005;SDS011;63553;51.814;4.600;2023-01-30T16:02:11;9.10;;;3.00;;
75005;SDS011;63553;51.814;4.600;2023-01-30T16:04:40;8.10;;;2.10;;
75005;SDS011;63553;51.814;4.600;2023-01-30T16:09:55;8.27;;;2.10;;
75005;SDS011;63553;51.814;4.600;2023-01-30T16:12:30;8.77;;;2.28;;
75005;SDS011;63553;51.814;4.600;2023-01-30T16:14:56;11.60;;;2.70;;
75005;SDS011;63553;51.814;4.600;2023-01-30T16:17:26;5.47;;;1.85;;
75005;SDS011;63553;51.814;4.600;2023-01-30T16:19:54;9.75;;;2.20;;
75005;SDS011;63553;51.814;4.600;2023-01-30T16:22:22;8.90;;;2.33;;
75005;SDS011;63553;51.814;4.600;2023-01-30T16:24:51;9.38;;;2.40;;
75005;SDS011;63553;51.814;4.600;2023-01-30T16:29:52;3.63;;;1.95;;
75005;SDS011;63553;51.814;4.600;2023-01-30T16:32:25;6.32;;;1.98;;
75005;SDS011;63553;51.814;4.600;2023-01-30T16:35:14;6.63;;;1.80;;
75005;SDS011;63553;51.814;4.600;2023-01-30T16:37:51;7.22;;;2.15;;
75005;SDS011;63553;51.814;4.600;2023-01-30T16:40:22;10.75;;;3.03;;
75005;SDS011;63553;51.814;4.600;2023-01-30T16:42:53;7.15;;;2.35;;
75005;SDS011;63553;51.814;4.600;2023-01-30T16:45:43;5.65;;;1.73;;
75005;SDS011;63553;51.814;4.600;2023-01-30T16:53:23;9.25;;;2.10;;
75005;SDS011;63553;51.814;4.600;2023-01-30T16:55:55;4.55;;;1.85;;
75005;SDS011;63553;51.814;4.600;2023-01-30T16:58:23;9.77;;;2.35;;
75005;SDS011;63553;51.814;4.600;2023-01-30T17:00:56;12.20;;;2.60;;
75005;SDS011;63553;51.814;4.600;2023-01-30T17:03:42;9.98;;;2.10;;
75005;SDS011;63553;51.814;4.600;2023-01-30T17:06:23;7.53;;;2.00;;
75005;SDS011;63553;51.814;4.600;2023-01-30T17:08:54;10.43;;;2.05;;
75005;SDS011;63553;51.814;4.600;2023-01-30T17:11:27;11.40;;;2.85;;
75005;SDS011;63553;51.814;4.600;2023-01-30T17:16:43;11.93;;;3.28;;
75005;SDS011;63553;51.814;4.600;2023-01-30T17:19:10;12.48;;;3.50;;
75005;SDS011;63553;51.814;4.600;2023-01-30T17:21:40;10.85;;;3.72;;
75005;SDS011;63553;51.814;4.600;2023-01-30T17:24:13;17.20;;;4.93;;
75005;SDS011;63553;51.814;4.600;2023-01-30T17:26:40;18.55;;;5.30;;
75005;SDS011;63553;51.814;4.600;2023-01-30T17:29:08;17.92;;;7.25;;
75005;SDS011;63553;51.814;4.600;2023-01-30T17:31:36;22.10;;;7.55;;
75005;SDS011;63553;51.814;4.600;2023-01-30T17:34:01;16.95;;;7.05;;
75005;SDS011;63553;51.814;4.600;2023-01-30T17:36:27;23.27;;;6.90;;
75005;SDS011;63553;51.814;4.600;2023-01-30T17:38:54;18.77;;;7.68;;
75005;SDS011;63553;51.814;4.600;2023-01-30T17:41:22;20.20;;;6.75;;
75005;SDS011;63553;51.814;4.600;2023-01-30T17:43:49;20.65;;;7.30;;
75005;SDS011;63553;51.814;4.600;2023-01-30T17:46:15;17.73;;;6.10;;
75005;SDS011;63553;51.814;4.600;2023-01-30T17:48:40;14.20;;;6.63;;
75005;SDS011;63553;51.814;4.600;2023-01-30T17:51:06;18.83;;;6.07;;
75005;SDS011;63553;51.814;4.600;2023-01-30T17:53:32;19.70;;;6.03;;
75005;SDS011;63553;51.814;4.600;2023-01-30T17:55:58;17.27;;;5.00;;
75005;SDS011;63553;51.814;4.600;2023-01-30T17:58:23;17.10;;;6.05;;
75005;SDS011;63553;51.814;4.600;2023-01-30T18:00:48;11.32;;;4.47;;
75005;SDS011;63553;51.814;4.600;2023-01-30T18:03:14;13.82;;;5.10;;
75005;SDS011;63553;51.814;4.600;2023-01-30T18:05:39;12.82;;;5.03;;
75005;SDS011;63553;51.814;4.600;2023-01-30T18:08:05;12.25;;;4.53;;
75005;SDS011;63553;51.814;4.600;2023-01-30T18:10:31;9.60;;;4.03;;
75005;SDS011;63553;51.814;4.600;2023-01-30T18:12:56;13.83;;;4.03;;
75005;SDS011;63553;51.814;4.600;2023-01-30T18:15:22;15.27;;;3.55;;
75005;SDS011;63553;51.814;4.600;2023-01-30T18:17:47;18.55;;;4.50;;
75005;SDS011;63553;51.814;4.600;2023-01-30T18:20:15;13.32;;;4.72;;
75005;SDS011;63553;51.814;4.600;2023-01-30T18:22:42;22.75;;;8.27;;